Time,TemperatureF,DewpointF,PressureIn,WindDirection,WindDirectionDegrees,WindSpeedMPH,WindSpeedGustMPH,Humidity,HourlyPrecipIn,Conditions,Clouds,dailyrainin,SoftwareType,DateUTC
2013-03-06 00:03:00,23.3,0.0,30.33,ESE,110,0.0,3.0,37,0.00,,,0.10,weatherlink.com 1.10,2013-03-06 07:03:00,
2013-03-06 00:18:00,28.0,-6.0,30.32,South,186,0.0,4.0,22,0.00,,,0.00,weatherlink.com 1.10,2013-03-06 07:18:00,
2013-03-06 00:33:00,29.7,-8.0,30.31,SSE,167,5.0,6.0,19,0.00,,,0.00,weatherlink.com 1.10,2013-03-06 07:33:00,
2013-03-06 00:48:00,33.3,-5.0,30.30,SE,141,1.0,8.0,19,0.00,,,0.00,weatherlink.com 1.10,2013-03-06 07:48:00,
2013-03-06 01:03:00,34.3,-8.0,30.30,South,181,1.0,7.0,16,0.00,,,0.00,weatherlink.com 1.10,2013-03-06 08:03:00,
2013-03-06 01:18:00,35.2,-6.0,30.30,SSW,195,1.0,21.0,17,0.00,,,0.00,weatherlink.com 1.10,2013-03-06 08:18:00,
2013-03-06 01:34:00,36.0,-4.0,30.30,SE,146,0.0,7.0,18,0.00,,,0.00,weatherlink.com 1.10,2013-03-06 08:34:00,
2013-03-06 01:49:00,35.3,-3.0,30.29,SE,127,1.0,8.0,19,0.00,,,0.00,weatherlink.com 1.10,2013-03-06 08:49:00,
2013-03-06 02:04:00,34.7,2.0,30.28,ESE,122,3.0,5.0,25,0.00,,,0.00,weatherlink.com 1.10,2013-03-06 09:04:00,
2013-03-06 02:19:00,35.1,2.0,30.26,SSW,202,0.0,7.0,24,0.00,,,0.00,weatherlink.com 1.10,2013-03-06 09:19:00,
2013-03-06 02:34:00,35.7,4.0,30.23,SSW,196,5.0,7.0,26,0.00,,,0.00,weatherlink.com 1.10,2013-03-06 09:34:00,
2013-03-06 02:49:00,36.6,5.0,30.22,WNW,287,2.0,7.0,27,0.00,,,0.00,weatherlink.com 1.10,2013-03-06 09:49:00,
2013-03-06 03:04:00,36.6,5.0,30.20,WSW,252,4.0,6.0,26,0.00,,,0.00,weatherlink.com 1.10,2013-03-06 10:04:00,
2013-03-06 03:19:00,36.2,7.0,30.20,South,177,1.0,7.0,30,0.00,,,0.00,weatherlink.com 1.10,2013-03-06 10:19:00,
2013-03-06 03:34:00,37.1,7.0,30.19,SE,143,2.0,7.0,29,0.00,,,0.00,weatherlink.com 1.10,2013-03-06 10:34:00,
2013-03-06 03:49:00,36.7,8.0,30.18,SSE,167,1.0,5.0,30,0.00,,,0.00,weatherlink.com 1.10,2013-03-06 10:49:00,
2013-03-06 04:04:00,37.3,7.0,30.17,SSE,165,8.0,11.0,28,0.00,,,0.00,weatherlink.com 1.10,2013-03-06 11:04:00,
2013-03-06 04:19:00,37.3,8.0,30.14,West,274,5.0,8.0,29,0.00,,,0.00,weatherlink.com 1.10,2013-03-06 11:19:00,
2013-03-06 04:34:00,38.2,7.0,30.13,SSE,166,3.0,17.0,27,0.00,,,0.00,weatherlink.com 1.10,2013-03-06 11:34:00,
2013-03-06 04:50:00,38.6,5.0,30.15,SW,220,2.0,14.0,24,0.00,,,0.00,weatherlink.com 1.10,2013-03-06 11:50:00,
2013-03-06 05:05:00,37.9,6.0,30.11,SW,236,3.0,8.0,26,0.00,,,0.00,weatherlink.com 1.10,2013-03-06 12:05:00,
2013-03-06 05:20:00,37.1,5.0,30.12,ESE,109,3.0,12.0,26,0.00,,,0.00,weatherlink.com 1.10,2013-03-06 12:20:00,
2013-03-06 05:35:00,36.9,8.0,30.10,SSW,197,4.0,12.0,30,0.00,,,0.00,weatherlink.com 1.10,2013-03-06 12:35:00,
2013-03-06 05:50:00,36.0,6.0,30.11,SSW,210,6.0,9.0,29,0.00,,,0.00,weatherlink.com 1.10,2013-03-06 12:50:00,
2013-03-06 06:05:00,37.0,7.0,30.11,SSW,198,2.0,18.0,29,0.00,,,0.00,weatherlink.com 1.10,2013-03-06 13:05:00,
2013-03-06 06:20:00,38.0,9.0,30.10,ENE,58,1.0,14.0,30,0.00,,,0.00,weatherlink.com 1.10,2013-03-06 13:20:00,
2013-03-06 06:35:00,35.7,10.0,30.09,South,184,1.0,13.0,34,0.00,,,0.00,weatherlink.com 1.10,2013-03-06 13:35:00,
2013-03-06 06:50:00,37.3,10.0,30.09,SSW,207,2.0,18.0,33,0.00,,,0.00,weatherlink.com 1.10,2013-03-06 13:50:00,
2013-03-06 07:05:00,37.4,11.0,30.08,SSE,149,2.0,10.0,33,0.00,,,0.00,weatherlink.com 1.10,2013-03-06 14:05:00,
2013-03-06 07:20:00,37.2,10.0,30.06,SSW,206,4.0,14.0,32,0.00,,,0.00,weatherlink.com 1.10,2013-03-06 14:20:00,
2013-03-06 07:35:00,37.9,10.0,30.05,WNW,296,1.0,11.0,32,0.00,,,0.00,weatherlink.com 1.10,2013-03-06 14:35:00,
2013-03-06 07:50:00,39.4,11.0,30.05,SSE,164,4.0,9.0,31,0.00,,,0.00,weatherlink.com 1.10,2013-03-06 14:50:00,
2013-03-06 08:06:00,38.9,11.0,30.04,South,191,2.0,10.0,32,0.00,,,0.00,weatherlink.com 1.10,2013-03-06 15:06:00,
2013-03-06 08:21:00,37.9,10.0,30.04,SSE,149,1.0,5.0,32,0.00,,,0.00,weatherlink.com 1.10,2013-03-06 15:21:00,
2013-03-06 08:36:00,38.5,11.0,30.03,South,176,1.0,5.0,32,0.00,,,0.00,weatherlink.com 1.10,2013-03-06 15:36:00,
2013-03-06 08:51:00,43.4,10.0,30.02,SSW,199,2.0,6.0,26,0.00,,,0.00,weatherlink.com 1.10,2013-03-06 15:51:00,
2013-03-06 09:06:00,45.3,8.0,30.02,SSE,156,2.0,10.0,22,0.00,,,0.00,weatherlink.com 1.10,2013-03-06 16:06:00,
2013-03-06 09:21:00,46.0,11.0,30.02,SSE,159,2.0,8.0,24,0.00,,,0.00,weatherlink.com 1.10,2013-03-06 16:21:00,
2013-03-06 09:36:00,46.6,6.0,30.01,SW,216,4.0,7.0,19,0.00,,,0.00,weatherlink.com 1.10,2013-03-06 16:36:00,
2013-03-06 09:51:00,46.7,7.0,30.01,ENE,58,3.0,9.0,20,0.00,,,0.00,weatherlink.com 1.10,2013-03-06 16:51:00,
2013-03-06 10:06:00,47.5,7.0,30.01,SW,228,2.0,7.0,19,0.00,,,0.00,weatherlink.com 1.10,2013-03-06 17:06:00,
2013-03-06 10:21:00,47.2,9.0,30.00,South,172,1.0,12.0,21,0.00,,,0.00,weatherlink.com 1.10,2013-03-06 17:21:00,
2013-03-06 10:36:00,49.4,7.0,29.99,SSW,200,2.0,5.0,18,0.00,,,0.00,weatherlink.com 1.10,2013-03-06 17:36:00,
2013-03-06 10:51:00,48.9,9.0,29.98,East,93,2.0,9.0,20,0.00,,,0.00,weatherlink.com 1.10,2013-03-06 17:51:00,
2013-03-06 11:06:00,50.0,9.0,29.98,South,191,2.0,4.0,19,0.00,,,0.00,weatherlink.com 1.10,2013-03-06 18:06:00,
2013-03-06 11:22:00,49.8,6.0,29.96,SSW,201,2.0,6.0,17,0.00,,,0.00,weatherlink.com 1.10,2013-03-06 18:22:00,
2013-03-06 11:37:00,49.3,7.0,29.95,SSE,150,1.0,12.0,18,0.00,,,0.00,weatherlink.com 1.10,2013-03-06 18:37:00,
2013-03-06 11:52:00,50.1,11.0,29.94,SSW,194,4.0,13.0,21,0.00,,,0.00,weatherlink.com 1.10,2013-03-06 18:52:00,
2013-03-06 12:07:00,50.1,5.0,29.94,WSW,238,4.0,6.0,16,0.00,,,0.00,weatherlink.com 1.10,2013-03-06 19:07:00,
2013-03-06 12:22:00,49.6,7.0,29.93,SW,214,4.0,9.0,18,0.00,,,0.00,weatherlink.com 1.10,2013-03-06 19:22:00,
2013-03-06 12:37:00,50.6,8.0,29.91,WSW,243,5.0,6.0,18,0.00,,,0.00,weatherlink.com 1.10,2013-03-06 19:37:00,
2013-03-06 12:52:00,50.0,8.0,29.91,South,180,3.0,7.0,18,0.00,,,0.00,weatherlink.com 1.10,2013-03-06 19:52:00,
2013-03-06 13:07:00,49.2,10.0,29.89,SSE,158,3.0,12.0,20,0.00,,,0.00,weatherlink.com 1.10,2013-03-06 20:07:00,
2013-03-06 13:22:00,48.8,8.0,29.89,SSW,208,3.0,11.0,19,0.00,,,0.00,weatherlink.com 1.10,2013-03-06 20:22:00,
2013-03-06 13:37:00,48.8,11.0,29.88,SSE,158,0.0,8.0,22,0.00,,,0.00,weatherlink.com 1.10,2013-03-06 20:37:00,
2013-03-06 13:52:00,48.4,10.0,29.88,South,176,1.0,7.0,21,0.00,,,0.00,weatherlink.com 1.10,2013-03-06 20:52:00,
2013-03-06 14:07:00,48.3,10.0,29.86,SSE,152,2.0,6.0,21,0.00,,,0.00,weatherlink.com 1.10,2013-03-06 21:07:00,
2013-03-06 14:22:00,48.9,8.0,29.86,SE,135,1.0,3.0,19,0.00,,,0.00,weatherlink.com 1.10,2013-03-06 21:22:00,
2013-03-06 14:38:00,48.3,8.0,29.85,South,176,0.0,7.0,19,0.00,,,0.00,weatherlink.com 1.10,2013-03-06 21:38:00,
2013-03-06 14:53:00,47.3,6.0,29.85,West,274,1.0,8.0,18,0.00,,,0.00,weatherlink.com 1.10,2013-03-06 21:53:00,
2013-03-06 15:08:00,47.9,6.0,29.85,SW,217,1.0,7.0,18,0.00,,,0.00,weatherlink.com 1.10,2013-03-06 22:08:00,
2013-03-06 15:23:00,48.2,6.0,29.84,SE,131,0.0,3.0,18,0.00,,,0.00,weatherlink.com 1.10,2013-03-06 22:23:00,
2013-03-06 15:38:00,48.8,7.0,29.83,SSE,148,1.0,3.0,18,0.00,,,0.00,weatherlink.com 1.10,2013-03-06 22:38:00,
2013-03-06 15:53:00,48.9,4.0,29.83,SSW,206,3.0,8.0,16,0.00,,,0.00,weatherlink.com 1.10,2013-03-06 22:53:00,
2013-03-06 16:08:00,48.6,4.0,29.83,ENE,68,1.0,4.0,16,0.00,,,0.00,weatherlink.com 1.10,2013-03-06 23:08:00,
2013-03-06 16:23:00,47.5,6.0,29.83,South,174,1.0,4.0,18,0.00,,,0.00,weatherlink.com 1.10,2013-03-06 23:23:00,
2013-03-06 16:38:00,46.6,4.0,29.82,South,191,5.0,7.0,17,0.00,,,0.00,weatherlink.com 1.10,2013-03-06 23:38:00,
2013-03-06 16:53:00,45.3,8.0,29.82,SSW,203,2.0,8.0,22,0.00,,,0.00,weatherlink.com 1.10,2013-03-06 23:53:00,
2013-03-06 17:08:00,44.1,6.0,29.82,SE,143,1.0,9.0,21,0.00,,,0.00,weatherlink.com 1.10,2013-03-07 00:08:00,
2013-03-06 17:23:00,43.7,7.0,29.82,South,183,2.0,10.0,22,0.00,,,0.00,weatherlink.com 1.10,2013-03-07 00:23:00,
2013-03-06 17:38:00,43.6,8.0,29.82,East,100,6.0,12.0,23,0.00,,,0.00,weatherlink.com 1.10,2013-03-07 00:38:00,
2013-03-06 17:53:00,42.2,9.0,29.82,SSE,153,0.0,8.0,25,0.00,,,0.00,weatherlink.com 1.10,2013-03-07 00:53:00,
2013-03-06 18:09:00,42.2,7.0,29.82,South,179,3.0,11.0,23,0.00,,,0.00,weatherlink.com 1.10,2013-03-07 01:09:00,
2013-03-06 18:24:00,41.1,12.0,29.82,SSW,195,1.0,16.0,31,0.00,,,0.00,weatherlink.com 1.10,2013-03-07 01:24:00,
2013-03-06 18:39:00,42.1,8.0,29.80,SSE,167,1.0,12.0,24,0.00,,,0.00,weatherlink.com 1.10,2013-03-07 01:39:00,
2013-03-06 18:54:00,42.6,7.0,29.79,ESE,120,6.0,14.0,23,0.00,,,0.00,weatherlink.com 1.10,2013-03-07 01:54:00,
2013-03-06 19:09:00,42.2,8.0,29.80,WSW,246,3.0,12.0,24,0.00,,,0.00,weatherlink.com 1.10,2013-03-07 02:09:00,
2013-03-06 19:24:00,42.0,7.0,29.79,SSW,204,2.0,12.0,24,0.00,,,0.00,weatherlink.com 1.10,2013-03-07 02:24:00,
2013-03-06 19:39:00,42.0,7.0,29.78,SSW,193,11.0,19.0,24,0.00,,,0.00,weatherlink.com 1.10,2013-03-07 02:39:00,
2013-03-06 19:54:00,41.7,8.0,29.78,WSW,252,2.0,9.0,25,0.00,,,0.00,weatherlink.com 1.10,2013-03-07 02:54:00,
2013-03-06 20:09:00,41.3,9.0,29.78,South,176,8.0,13.0,26,0.00,,,0.00,weatherlink.com 1.10,2013-03-07 03:09:00,
2013-03-06 20:24:00,41.4,9.0,29.78,SSW,205,4.0,14.0,26,0.00,,,0.00,weatherlink.com 1.10,2013-03-07 03:24:00,
2013-03-06 20:39:00,41.6,8.0,29.78,SW,233,3.0,16.0,25,0.00,,,0.00,weatherlink.com 1.10,2013-03-07 03:39:00,
2013-03-06 20:54:00,41.2,9.0,29.78,West,276,9.0,19.0,27,0.00,,,0.00,weatherlink.com 1.10,2013-03-07 03:54:00,
2013-03-06 21:10:00,41.4,9.0,29.77,South,185,6.0,18.0,26,0.00,,,0.00,weatherlink.com 1.10,2013-03-07 04:10:00,
2013-03-06 21:25:00,41.2,9.0,29.77,NNW,333,3.0,14.0,26,0.00,,,0.00,weatherlink.com 1.10,2013-03-07 04:25:00,
2013-03-06 21:40:00,41.4,8.0,29.78,SSE,148,6.0,17.0,25,0.00,,,0.00,weatherlink.com 1.10,2013-03-07 04:40:00,
2013-03-06 21:55:00,41.5,8.0,29.78,West,264,6.0,16.0,25,0.00,,,0.00,weatherlink.com 1.10,2013-03-07 04:55:00,
2013-03-06 22:10:00,41.3,8.0,29.77,WSW,239,5.0,21.0,25,0.00,,,0.00,weatherlink.com 1.10,2013-03-07 05:10:00,
2013-03-06 22:25:00,41.4,7.0,29.78,WSW,250,5.0,15.0,24,0.00,,,0.00,weatherlink.com 1.10,2013-03-07 05:25:00,
2013-03-06 22:40:00,41.3,9.0,29.77,SSW,198,6.0,13.0,26,0.00,,,0.00,weatherlink.com 1.10,2013-03-07 05:40:00,
2013-03-06 22:55:00,41.3,9.0,29.78,SSE,160,9.0,15.0,26,0.00,,,0.00,weatherlink.com 1.10,2013-03-07 05:55:00,
2013-03-06 23:10:00,41.0,8.0,29.77,SE,124,4.0,19.0,26,0.00,,,0.00,weatherlink.com 1.10,2013-03-07 06:10:00,
2013-03-06 23:25:00,41.1,8.0,29.76,SSE,166,9.0,19.0,26,0.00,,,0.00,weatherlink.com 1.10,2013-03-07 06:25:00,
2013-03-06 23:40:00,40.8,9.0,29.75,SSW,192,6.0,17.0,27,0.00,,,0.00,weatherlink.com 1.10,2013-03-07 06:40:00,
2013-03-06 23:55:00,41.0,9.0,29.77,NE,40,2.0,16.0,27,0.00,,,0.00,weatherlink.com 1.10,2013-03-07 06:55:00,